createdAt,value
2022-09-12T00:01:16.234Z,100842.08
2022-09-12T00:06:44.827Z,100839.19
2022-09-12T00:12:06.993Z,100844.39
2022-09-12T00:17:29.141Z,100843.75
2022-09-12T00:22:51.325Z,100841.17
2022-09-12T00:28:13.952Z,100845.36
2022-09-12T00:33:36.567Z,100841.33
2022-09-12T00:38:59.983Z,100842.30
2022-09-12T00:44:39.103Z,100839.12
2022-09-12T00:50:09.923Z,100833.16
2022-09-12T00:55:42.404Z,100827.91
2022-09-12T01:01:05.324Z,100828.66
2022-09-12T01:06:38.577Z,100832.30
2022-09-12T01:12:03.364Z,100847.95
2022-09-12T01:17:27.657Z,100841.38
2022-09-12T01:23:31.675Z,100835.69
2022-09-12T01:35:29.907Z,100823.25
2022-09-12T01:41:24.217Z,100829.41
2022-09-12T01:47:05.773Z,100832.83
2022-09-12T01:52:39.336Z,100837.23
2022-09-12T01:58:09.302Z,100837.66
2022-09-12T02:03:46.284Z,100841.12
2022-09-12T02:09:28.614Z,100839.83
2022-09-12T02:14:58.510Z,100841.72
2022-09-12T02:20:49.546Z,100850.43
2022-09-12T02:26:01.977Z,100834.47
2022-09-12T02:31:51.679Z,100850.71
2022-09-12T02:37:51.490Z,100848.89
2022-09-12T02:43:15.188Z,100849.59
2022-09-12T02:48:43.996Z,100854.77
2022-09-12T02:54:07.743Z,100855.03
2022-09-12T02:59:32.338Z,100859.32
2022-09-12T03:05:21.988Z,100854.51
2022-09-12T03:11:11.740Z,100860.28
2022-09-12T03:16:54.332Z,100866.01
2022-09-12T03:22:52.263Z,100868.11
2022-09-12T03:28:23.887Z,100865.64
2022-09-12T03:33:46.033Z,100863.34
2022-09-12T03:39:08.626Z,100871.37
2022-09-12T03:44:31.681Z,100866.23
2022-09-12T03:49:53.817Z,100870.46
2022-09-12T03:55:16.576Z,100875.71
2022-09-12T04:00:40.197Z,100883.95
2022-09-12T04:06:04.294Z,100890.91
2022-09-12T04:11:28.733Z,100890.33
2022-09-12T04:16:50.997Z,100881.72
2022-09-12T04:22:13.291Z,100882.03
2022-09-12T04:27:35.479Z,100885.45
2022-09-12T04:32:58.515Z,100889.95
2022-09-12T04:38:21.700Z,100888.72
2022-09-12T04:43:43.903Z,100894.55
2022-09-12T04:49:07.056Z,100907.45
2022-09-12T04:54:33.590Z,100913.95
2022-09-12T04:59:57.007Z,100906.83
2022-09-12T05:05:19.222Z,100907.58
2022-09-12T05:10:41.733Z,100907.38
2022-09-12T05:16:09.785Z,100917.97
2022-09-12T05:21:35.222Z,100909.98
2022-09-12T05:26:57.944Z,100918.33
2022-09-12T05:32:20.991Z,100919.42
2022-09-12T05:37:43.212Z,100923.63
2022-09-12T05:43:05.870Z,100923.62
2022-09-12T05:48:30.614Z,100927.81
2022-09-12T05:53:55.188Z,100927.56
2022-09-12T05:59:22.273Z,100930.14
2022-09-12T06:04:44.509Z,100933.09
2022-09-12T06:10:06.682Z,100934.80
2022-09-12T06:15:29.236Z,100935.16
2022-09-12T06:20:51.511Z,100934.44
2022-09-12T06:26:14.897Z,100939.05
2022-09-12T06:31:41.959Z,100929.70
2022-09-12T06:37:05.556Z,100932.69
2022-09-12T06:42:27.789Z,100938.23
2022-09-12T06:47:52.600Z,100932.64
2022-09-12T06:53:15.624Z,100936.34
2022-09-12T06:58:38.799Z,100935.59
2022-09-12T07:04:04.688Z,100934.56
2022-09-12T07:09:30.644Z,100939.06
2022-09-12T07:14:52.793Z,100933.45
2022-09-12T07:20:15.219Z,100930.26
2022-09-12T07:25:39.010Z,100934.12
2022-09-12T07:31:01.570Z,100950.43
2022-09-12T07:36:28.123Z,100941.09
2022-09-12T07:41:51.670Z,100949.89
2022-09-12T07:47:14.784Z,100956.08
2022-09-12T07:52:37.214Z,100969.32
2022-09-12T07:58:01.349Z,100958.81
2022-09-12T08:03:23.740Z,100972.80
2022-09-12T08:08:46.321Z,100960.44
2022-09-12T08:14:10.333Z,100969.89
2022-09-12T08:19:32.641Z,100967.34
2022-09-12T08:24:55.260Z,100964.66
2022-09-12T08:30:20.809Z,100966.18
2022-09-12T08:35:43.135Z,100981.86
2022-09-12T08:41:35.459Z,100977.34
2022-09-12T08:47:38.870Z,100975.20
2022-09-12T08:53:20.555Z,100971.63
2022-09-12T08:58:46.429Z,100977.05
2022-09-12T09:04:42.012Z,100968.59
2022-09-12T09:10:27.840Z,100983.16
2022-09-12T09:16:22.768Z,100977.31
2022-09-12T09:21:50.399Z,100971.38
2022-09-12T09:27:39.346Z,100966.42
2022-09-12T09:32:53.588Z,100967.91
2022-09-12T09:38:23.423Z,100971.52
2022-09-12T09:43:45.922Z,100969.50
2022-09-12T09:49:10.701Z,100976.25
2022-09-12T09:54:54.509Z,100979.05
2022-09-12T10:00:37.660Z,100970.31
2022-09-12T10:06:10.614Z,100975.27
2022-09-12T10:11:43.754Z,100976.97
2022-09-12T10:17:11.166Z,100972.20
2022-09-12T10:22:40.353Z,100967.92
2022-09-12T10:28:06.773Z,100967.09
2022-09-12T10:33:32.031Z,100963.19
2022-09-12T10:38:57.524Z,100964.48
2022-09-12T10:44:39.200Z,100960.28
2022-09-12T10:50:01.847Z,100959.26
2022-09-12T10:55:29.944Z,100961.47
2022-09-12T11:00:56.740Z,100964.97
2022-09-12T11:06:21.192Z,100959.18
2022-09-12T11:12:07.077Z,100956.70
2022-09-12T11:18:10.514Z,100953.42
2022-09-12T11:24:11.936Z,100949.02
2022-09-12T11:29:56.517Z,100944.16
2022-09-12T11:35:59.146Z,100943.16
2022-09-12T11:41:32.251Z,100945.27
2022-09-12T11:46:59.743Z,100949.52
2022-09-12T11:52:39.238Z,100954.06
2022-09-12T11:58:07.270Z,100953.79
2022-09-12T12:03:43.391Z,100950.06
2022-09-12T12:09:07.173Z,100935.37
2022-09-12T12:14:40.364Z,100952.56
2022-09-12T12:20:12.495Z,100950.58
2022-09-12T12:25:56.780Z,100939.95
2022-09-12T12:31:19.627Z,100945.23
2022-09-12T12:36:51.067Z,100953.71
2022-09-12T12:42:18.798Z,100950.47
2022-09-12T12:47:48.221Z,100950.89
2022-09-12T12:53:38.231Z,100937.08
2022-09-12T12:59:05.359Z,100937.48
2022-09-12T13:04:36.897Z,100925.13
2022-09-12T13:10:04.787Z,100920.38
2022-09-12T13:15:48.293Z,100914.81
2022-09-12T13:21:24.163Z,100915.00
2022-09-12T13:26:49.963Z,100909.45
2022-09-12T13:32:17.215Z,100914.42
2022-09-12T13:37:56.084Z,100916.98
2022-09-12T13:43:38.193Z,100916.84
2022-09-12T13:49:01.431Z,100901.00
2022-09-12T13:54:27.583Z,100908.81
2022-09-12T14:00:02.287Z,100897.72
2022-09-12T14:05:35.429Z,100903.78
2022-09-12T14:11:00.916Z,100905.52
2022-09-12T14:16:24.706Z,100889.23
2022-09-12T14:21:55.075Z,100900.67
2022-09-12T14:27:19.241Z,100892.14
2022-09-12T14:32:42.794Z,100894.82
2022-09-12T14:38:15.850Z,100899.45
2022-09-12T14:43:53.594Z,100894.76
2022-09-12T14:49:33.573Z,100895.31
2022-09-12T14:55:04.575Z,100885.88
2022-09-12T15:00:33.899Z,100886.19
2022-09-12T15:06:03.870Z,100897.53
2022-09-12T15:11:26.019Z,100896.19
2022-09-12T15:16:48.415Z,100896.05
2022-09-12T15:22:10.674Z,100893.20
2022-09-12T15:27:33.339Z,100892.52
2022-09-12T15:32:56.753Z,100885.94
2022-09-12T15:38:21.938Z,100890.80
2022-09-12T15:43:43.612Z,100894.70
2022-09-12T15:49:05.821Z,100886.75
2022-09-12T15:54:29.992Z,100899.29
2022-09-12T15:59:52.920Z,100894.00
2022-09-12T16:05:17.292Z,100899.48
2022-09-12T16:10:42.361Z,100907.45
2022-09-12T16:16:05.325Z,100898.67
2022-09-12T16:21:28.281Z,100892.27
2022-09-12T16:26:50.432Z,100898.37
2022-09-12T16:32:13.337Z,100895.69
2022-09-12T16:37:36.338Z,100888.37
2022-09-12T16:42:59.286Z,100897.60
2022-09-12T16:48:21.897Z,100890.49
2022-09-12T16:53:45.820Z,100885.14
2022-09-12T16:59:10.058Z,100889.08
2022-09-12T17:04:32.757Z,100886.98
2022-09-12T17:09:55.365Z,100890.31
2022-09-12T17:15:17.824Z,100888.64
2022-09-12T17:20:41.682Z,100884.25
2022-09-12T17:26:07.468Z,100886.78
2022-09-12T17:31:30.971Z,100894.84
2022-09-12T17:36:55.026Z,100898.80
2022-09-12T17:42:17.412Z,100895.89
2022-09-12T17:47:43.564Z,100898.31
2022-09-12T17:53:06.776Z,100905.56
2022-09-12T17:58:28.949Z,100899.22
2022-09-12T18:03:52.569Z,100902.59
2022-09-12T18:09:16.849Z,100904.97
2022-09-12T18:14:40.762Z,100905.98
2022-09-12T18:20:03.266Z,100900.11
2022-09-12T18:25:25.960Z,100901.59
2022-09-12T18:30:48.795Z,100896.52
2022-09-12T18:36:12.939Z,100898.41
2022-09-12T18:41:36.909Z,100905.57
2022-09-12T18:47:00.387Z,100906.86
2022-09-12T18:52:22.594Z,100903.39
2022-09-12T18:57:44.923Z,100908.18
2022-09-12T19:03:08.564Z,100916.81
2022-09-12T19:08:31.557Z,100910.88
2022-09-12T19:13:57.375Z,100913.77
2022-09-12T19:19:19.995Z,100908.89
2022-09-12T19:24:42.619Z,100904.02
2022-09-12T19:30:05.257Z,100896.27
2022-09-12T19:35:28.198Z,100898.23
2022-09-12T19:40:50.587Z,100904.08
2022-09-12T19:46:13.794Z,100898.45
2022-09-12T19:51:37.212Z,100893.56
2022-09-12T19:56:59.459Z,100896.00
2022-09-12T20:02:22.101Z,100889.37
2022-09-12T20:07:44.297Z,100885.56
2022-09-12T20:13:06.564Z,100885.69
2022-09-12T20:18:29.514Z,100887.38
2022-09-12T20:23:52.188Z,100888.33
2022-09-12T20:29:15.251Z,100888.72
2022-09-12T20:34:38.778Z,100898.86
2022-09-12T20:40:01.897Z,100892.03
2022-09-12T20:45:24.408Z,100885.17
2022-09-12T20:50:46.569Z,100888.76
2022-09-12T20:56:10.119Z,100896.00
2022-09-12T21:01:34.742Z,100889.34
2022-09-12T21:06:57.169Z,100886.14
2022-09-12T21:12:19.443Z,100885.42
2022-09-12T21:17:41.624Z,100874.36
2022-09-12T21:23:04.083Z,100874.34
2022-09-12T21:28:26.284Z,100875.64
2022-09-12T21:33:48.504Z,100870.80
2022-09-12T21:39:11.432Z,100864.46
2022-09-12T21:44:33.577Z,100868.81
2022-09-12T21:49:55.716Z,100869.36
2022-09-12T21:55:19.177Z,100870.10
2022-09-12T22:00:42.093Z,100872.73
2022-09-12T22:06:06.714Z,100869.91
2022-09-12T22:11:29.306Z,100857.83
2022-09-12T22:16:52.225Z,100857.94
2022-09-12T22:22:32.209Z,100854.55
2022-09-12T22:27:54.406Z,100851.20
2022-09-12T22:33:16.968Z,100849.98
2022-09-12T22:38:39.147Z,100849.73
2022-09-12T22:44:01.276Z,100850.06
2022-09-12T22:49:23.955Z,100841.56
2022-09-12T22:54:46.094Z,100846.63
2022-09-12T23:00:10.370Z,100845.61
2022-09-12T23:05:32.678Z,100846.48
2022-09-12T23:10:55.360Z,100842.77
2022-09-12T23:16:21.346Z,100837.80
2022-09-12T23:21:44.180Z,100833.48
2022-09-12T23:27:06.491Z,100834.74
2022-09-12T23:32:28.767Z,100815.64
2022-09-12T23:37:50.871Z,100814.19
2022-09-12T23:43:12.990Z,100805.14
2022-09-12T23:48:35.144Z,100800.81
2022-09-12T23:53:57.568Z,100802.84
2022-09-12T23:59:20.057Z,100803.31
